This is the latest recevied weather packets stored in our database for station/object K1WJY. If no packets are shown the sender has not sent any weather packets the latest 10 day(s).
| Time | Temp. | Humidity | Pressure | Rain* | Wind** | Luminosity | Snow |
|---|---|---|---|---|---|---|---|
| 1777659116 | 14.44° C | 61% | 1008.1 hPa | 0 mm | - | 194 W/m² | - |
| 1777658814 | 14.44° C | 62% | 1008.2 hPa | 0 mm | - | 239 W/m² | - |
| 1777658509 | 14.44° C | 63% | 1008.1 hPa | 0 mm | - | 252 W/m² | - |
| 1777658206 | 14.44° C | 63% | 1008.1 hPa | 0 mm | - | 257 W/m² | - |
| 1777657903 | 14.44° C | 65% | 1008.1 hPa | 0 mm | - | 272 W/m² | - |
| 1777657600 | 14.44° C | 65% | 1008 hPa | 0 mm | - | 258 W/m² | - |
| 1777657297 | 15° C | 65% | 1008.1 hPa | 0 mm | - | 232 W/m² | - |
| 1777656995 | 15.56° C | 61% | 1008 hPa | 0 mm | - | 835 W/m² | - |
| 1777656691 | 15° C | 65% | 1008.3 hPa | 0 mm | - | 952 W/m² | - |
| 1777656387 | 15° C | 65% | 1008 hPa | 0 mm | - | 288 W/m² | - |
| 1777656082 | 14.44° C | 66% | 1008 hPa | 0 mm | - | 460 W/m² | - |
| 1777655779 | 13.89° C | 69% | 1007.8 hPa | 0 mm | - | 289 W/m² | - |
| 1777655476 | 13.89° C | 68% | 1007.8 hPa | 0 mm | - | 298 W/m² | - |
| 1777655173 | 13.89° C | 69% | 1007.8 hPa | 0 mm | - | 215 W/m² | - |
| 1777654869 | 14.44° C | 68% | 1007.8 hPa | 0 mm | - | 270 W/m² | - |
| 1777654567 | 13.89° C | 69% | 1007.7 hPa | 0 mm | - | 223 W/m² | - |
| 1777654264 | 13.89° C | 70% | 1007.8 hPa | 0 mm | - | 299 W/m² | - |
| 1777653962 | 14.44° C | 68% | 1007.7 hPa | 0 mm | - | 269 W/m² | - |
| 1777653659 | 13.89° C | 70% | 1007.7 hPa | 0 mm | - | 335 W/m² | - |
| 1777653355 | 13.89° C | 69% | 1007.9 hPa | 0 mm | - | 275 W/m² | - |
| 1777653052 | 13.89° C | 68% | 1007.8 hPa | 0 mm | - | 285 W/m² | - |
| 1777652748 | 15° C | 66% | 1007.9 hPa | 0 mm | - | 216 W/m² | - |
| 1777652445 | 15° C | 70% | 1007.9 hPa | 0 mm | - | 856 W/m² | - |
| 1777652143 | 14.44° C | 70% | 1007.7 hPa | 0 mm | - | 903 W/m² | - |
| 1777651839 | 13.89° C | 71% | 1008 hPa | 0 mm | - | 569 W/m² | - |
* Rain latest hour (hover to see other rain measurements)
** Current wind speed in m/s (hover to see current wind gust speed)